This is the latest recevied weather packets stored in our database for station/object kj4yre. If no packets are shown the sender has not sent any weather packets the latest 10 day(s).
| Time | Temp. | Humidity | Pressure | Rain* | Wind** | Luminosity | Snow |
|---|---|---|---|---|---|---|---|
| 1787482339 | 18.33° C | 100% | 1011.1 hPa | 0 mm | - | - | - |
| 1787481137 | 18.33° C | 100% | 1010.8 hPa | 0 mm | - | - | - |
| 1787478736 | 17.78° C | 100% | 1010.1 hPa | 0 mm | - | - | - |
| 1787478136 | 17.78° C | 100% | 1009.9 hPa | 0 mm | - | - | - |
| 1787476635 | 18.33° C | 100% | 1010 hPa | 0 mm | - | - | - |
| 1787476035 | 18.33° C | 100% | 1010 hPa | 0 mm | - | - | - |
| 1787473938 | 18.33° C | 100% | 1010.4 hPa | 0 mm | - | - | - |
| 1787470036 | 18.33° C | 100% | 1010.5 hPa | 0 mm | - | - | - |
| 1787469735 | 18.33° C | 100% | 1010.5 hPa | 0 mm | - | - | - |
| 1787466737 | 18.33° C | 100% | 1010.4 hPa | 0 mm | - | - | - |
| 1787464937 | 18.33° C | 100% | 1010.4 hPa | 0.25 mm | - | - | - |
| 1787462837 | 18.33° C | 100% | 1011.2 hPa | 0.25 mm | - | - | - |
| 1787462235 | 18.89° C | 100% | 1011.5 hPa | 0.51 mm | - | - | - |
| 1787461635 | 18.89° C | 100% | 1011.9 hPa | 0.25 mm | - | - | - |
| 1787460738 | 18.89° C | 100% | 1012.4 hPa | 0.25 mm | - | - | - |
| 1787460136 | 18.89° C | 100% | 1012.4 hPa | 0.25 mm | - | - | - |
| 1787456536 | 21.11° C | 98% | 1012.4 hPa | 0 mm | - | - | - |
| 1787456237 | 22.22° C | 100% | 1012.3 hPa | 0 mm | - | - | - |
| 1787454136 | 21.67° C | 100% | 1011.7 hPa | 0 mm | - | - | - |
| 1787449935 | 22.22° C | 100% | 1012.2 hPa | 4.57 mm | - | - | - |
| 1787448737 | 22.22° C | 100% | 1012.2 hPa | 4.57 mm | - | - | - |
| 1787448139 | 22.78° C | 99% | 1012.2 hPa | 4.57 mm | - | - | - |
| 1787447236 | 23.33° C | 99% | 1012.2 hPa | 2.79 mm | - | - | - |
| 1787443935 | 23.89° C | 96% | 1011.1 hPa | 0 mm | - | - | - |
| 1787437336 | 27.22° C | 83% | 1011.4 hPa | 0 mm | - | - | - |
* Rain latest hour (hover to see other rain measurements)
** Current wind speed in m/s (hover to see current wind gust speed)